sensor_id;sensor_type;location;lat;lon;timestamp;pressure;altitude;pressure_sealevel;temperature;humidity
5550;BME280;2798;42.716;23.256;2022-08-11T00:01:59;94889.66;;;19.95;93.57
5550;BME280;2798;42.716;23.256;2022-08-11T00:04:26;94884.75;;;19.84;95.13
5550;BME280;2798;42.716;23.256;2022-08-11T00:07:01;94900.75;;;20.06;92.98
5550;BME280;2798;42.716;23.256;2022-08-11T00:09:34;94890.31;;;19.89;93.17
5550;BME280;2798;42.716;23.256;2022-08-11T00:12:01;94891.13;;;20.06;92.84
5550;BME280;2798;42.716;23.256;2022-08-11T00:14:32;94882.41;;;20.31;91.87
5550;BME280;2798;42.716;23.256;2022-08-11T00:17:07;94878.19;;;20.21;91.91
5550;BME280;2798;42.716;23.256;2022-08-11T00:19:41;94898.28;;;20.21;94.09
5550;BME280;2798;42.716;23.256;2022-08-11T00:22:09;94900.72;;;20.22;93.45
5550;BME280;2798;42.716;23.256;2022-08-11T00:24:38;94900.56;;;20.16;96.32
5550;BME280;2798;42.716;23.256;2022-08-11T00:27:05;94894.34;;;20.25;92.97
5550;BME280;2798;42.716;23.256;2022-08-11T00:29:32;94894.50;;;20.32;91.52
5550;BME280;2798;42.716;23.256;2022-08-11T00:32:00;94887.78;;;20.37;90.38
5550;BME280;2798;42.716;23.256;2022-08-11T00:34:29;94888.91;;;20.35;88.99
5550;BME280;2798;42.716;23.256;2022-08-11T00:37:00;94882.75;;;20.28;90.39
5550;BME280;2798;42.716;23.256;2022-08-11T00:39:26;94882.28;;;20.16;93.31
5550;BME280;2798;42.716;23.256;2022-08-11T00:49:34;94888.66;;;20.13;92.60
5550;BME280;2798;42.716;23.256;2022-08-11T00:52:14;94886.38;;;20.10;93.50
5550;BME280;2798;42.716;23.256;2022-08-11T00:54:59;94887.50;;;20.16;91.63
5550;BME280;2798;42.716;23.256;2022-08-11T01:09:29;94879.56;;;19.67;98.90
5550;BME280;2798;42.716;23.256;2022-08-11T01:23:47;94875.31;;;19.66;97.42
5550;BME280;2798;42.716;23.256;2022-08-11T01:46:31;94864.06;;;19.49;100.00
5550;BME280;2798;42.716;23.256;2022-08-11T01:49:11;94870.41;;;19.46;100.00
5550;BME280;2798;42.716;23.256;2022-08-11T01:57:15;94862.28;;;19.33;100.00
5550;BME280;2798;42.716;23.256;2022-08-11T01:59:53;94840.34;;;19.09;100.00
5550;BME280;2798;42.716;23.256;2022-08-11T02:02:39;94847.44;;;19.17;100.00
5550;BME280;2798;42.716;23.256;2022-08-11T02:10:53;94864.53;;;19.19;100.00
5550;BME280;2798;42.716;23.256;2022-08-11T02:19:51;94864.56;;;19.27;100.00
5550;BME280;2798;42.716;23.256;2022-08-11T02:23:42;94866.00;;;19.30;100.00
5550;BME280;2798;42.716;23.256;2022-08-11T02:26:10;94875.81;;;19.28;100.00
5550;BME280;2798;42.716;23.256;2022-08-11T02:28:50;94866.50;;;19.17;98.65
5550;BME280;2798;42.716;23.256;2022-08-11T02:34:28;94865.34;;;19.11;100.00
5550;BME280;2798;42.716;23.256;2022-08-11T02:39:37;94846.53;;;18.99;100.00
5550;BME280;2798;42.716;23.256;2022-08-11T02:42:20;94862.22;;;19.08;100.00
5550;BME280;2798;42.716;23.256;2022-08-11T02:48:20;94857.66;;;19.01;100.00
5550;BME280;2798;42.716;23.256;2022-08-11T02:59:48;94856.66;;;18.86;100.00
5550;BME280;2798;42.716;23.256;2022-08-11T03:07:38;94861.50;;;18.81;100.00
5550;BME280;2798;42.716;23.256;2022-08-11T03:13:23;94840.44;;;18.65;100.00
5550;BME280;2798;42.716;23.256;2022-08-11T03:27:40;94859.25;;;18.86;100.00
5550;BME280;2798;42.716;23.256;2022-08-11T03:33:23;94860.53;;;18.82;100.00
5550;BME280;2798;42.716;23.256;2022-08-11T04:30:17;94880.38;;;19.43;94.55
5550;BME280;2798;42.716;23.256;2022-08-11T04:50:28;94888.41;;;18.89;97.43
5550;BME280;2798;42.716;23.256;2022-08-11T04:53:35;94888.38;;;18.73;96.53
5550;BME280;2798;42.716;23.256;2022-08-11T04:56:28;94881.16;;;18.58;97.31
5550;BME280;2798;42.716;23.256;2022-08-11T05:13:28;94891.94;;;18.63;99.06
5550;BME280;2798;42.716;23.256;2022-08-11T05:16:18;94890.81;;;18.74;98.36
5550;BME280;2798;42.716;23.256;2022-08-11T05:19:17;94887.28;;;18.84;98.13
5550;BME280;2798;42.716;23.256;2022-08-11T05:22:02;94875.81;;;18.68;98.13
5550;BME280;2798;42.716;23.256;2022-08-11T05:25:09;94886.59;;;18.82;98.46
5550;BME280;2798;42.716;23.256;2022-08-11T05:30:55;94896.56;;;18.86;97.95
5550;BME280;2798;42.716;23.256;2022-08-11T05:34:00;94877.66;;;18.84;98.00
5550;BME280;2798;42.716;23.256;2022-08-11T05:36:49;94882.97;;;18.66;99.23
5550;BME280;2798;42.716;23.256;2022-08-11T05:39:27;94886.66;;;18.98;98.63
5550;BME280;2798;42.716;23.256;2022-08-11T05:42:15;94893.75;;;19.48;94.16
5550;BME280;2798;42.716;23.256;2022-08-11T05:45:03;94880.22;;;19.69;93.45
5550;BME280;2798;42.716;23.256;2022-08-11T05:47:49;94903.72;;;19.86;90.49
5550;BME280;2798;42.716;23.256;2022-08-11T05:50:34;94879.88;;;19.89;91.66
5550;BME280;2798;42.716;23.256;2022-08-11T05:53:19;94895.50;;;20.14;90.29
5550;BME280;2798;42.716;23.256;2022-08-11T05:56:04;94885.22;;;20.12;91.37
5550;BME280;2798;42.716;23.256;2022-08-11T05:58:49;94900.06;;;20.29;90.89
5550;BME280;2798;42.716;23.256;2022-08-11T06:01:30;94875.09;;;20.01;92.32
5550;BME280;2798;42.716;23.256;2022-08-11T06:03:59;94894.56;;;20.15;91.32
5550;BME280;2798;42.716;23.256;2022-08-11T06:09:11;94891.19;;;20.38;91.04
5550;BME280;2798;42.716;23.256;2022-08-11T06:11:40;94892.16;;;20.45;92.57
5550;BME280;2798;42.716;23.256;2022-08-11T06:14:10;94890.50;;;20.53;92.17
5550;BME280;2798;42.716;23.256;2022-08-11T06:16:36;94870.06;;;20.56;91.21
5550;BME280;2798;42.716;23.256;2022-08-11T06:19:03;94887.47;;;20.72;88.81
5550;BME280;2798;42.716;23.256;2022-08-11T06:21:32;94878.63;;;20.73;89.91
5550;BME280;2798;42.716;23.256;2022-08-11T06:23:59;94881.81;;;21.01;90.25
5550;BME280;2798;42.716;23.256;2022-08-11T06:26:25;94877.72;;;20.98;88.06
5550;BME280;2798;42.716;23.256;2022-08-11T06:28:57;94884.09;;;21.04;90.14
5550;BME280;2798;42.716;23.256;2022-08-11T06:31:24;94868.84;;;21.07;89.57
5550;BME280;2798;42.716;23.256;2022-08-11T06:34:34;94880.28;;;21.06;90.33
5550;BME280;2798;42.716;23.256;2022-08-11T06:37:21;94878.44;;;21.15;90.20
5550;BME280;2798;42.716;23.256;2022-08-11T06:40:10;94876.81;;;21.38;86.43
5550;BME280;2798;42.716;23.256;2022-08-11T06:45:28;94881.84;;;21.63;85.65
5550;BME280;2798;42.716;23.256;2022-08-11T06:47:55;94882.38;;;21.81;82.79
5550;BME280;2798;42.716;23.256;2022-08-11T06:50:25;94885.13;;;22.03;84.68
5550;BME280;2798;42.716;23.256;2022-08-11T06:53:10;94891.81;;;22.21;81.26
5550;BME280;2798;42.716;23.256;2022-08-11T06:55:38;94886.94;;;22.18;82.86
5550;BME280;2798;42.716;23.256;2022-08-11T06:58:29;94883.34;;;22.34;79.96
5550;BME280;2798;42.716;23.256;2022-08-11T07:01:18;94886.03;;;22.56;80.23
5550;BME280;2798;42.716;23.256;2022-08-11T07:03:50;94874.00;;;22.46;79.53
5550;BME280;2798;42.716;23.256;2022-08-11T07:10:05;94888.28;;;21.98;81.52
5550;BME280;2798;42.716;23.256;2022-08-11T07:12:54;94903.13;;;22.06;76.84
5550;BME280;2798;42.716;23.256;2022-08-11T07:15:49;94902.41;;;22.28;77.95
5550;BME280;2798;42.716;23.256;2022-08-11T07:18:24;94899.59;;;22.14;80.70
5550;BME280;2798;42.716;23.256;2022-08-11T07:21:23;94898.59;;;21.77;81.96
5550;BME280;2798;42.716;23.256;2022-08-11T07:24:24;94885.41;;;21.70;81.45
5550;BME280;2798;42.716;23.256;2022-08-11T07:27:13;94894.44;;;21.91;79.50
5550;BME280;2798;42.716;23.256;2022-08-11T07:30:00;94886.78;;;22.19;78.04
5550;BME280;2798;42.716;23.256;2022-08-11T07:32:29;94892.53;;;22.30;77.89
5550;BME280;2798;42.716;23.256;2022-08-11T07:35:11;94879.72;;;22.35;76.76
5550;BME280;2798;42.716;23.256;2022-08-11T07:37:40;94889.84;;;22.53;74.65
5550;BME280;2798;42.716;23.256;2022-08-11T07:40:07;94886.97;;;22.63;73.09
5550;BME280;2798;42.716;23.256;2022-08-11T07:42:34;94882.31;;;22.80;73.33
5550;BME280;2798;42.716;23.256;2022-08-11T07:45:02;94892.34;;;22.92;72.60
5550;BME280;2798;42.716;23.256;2022-08-11T07:47:46;94888.78;;;23.00;68.95
5550;BME280;2798;42.716;23.256;2022-08-11T07:50:31;94883.19;;;22.88;70.54
5550;BME280;2798;42.716;23.256;2022-08-11T07:53:15;94884.66;;;22.90;72.11
5550;BME280;2798;42.716;23.256;2022-08-11T07:55:43;94883.31;;;23.16;68.65
5550;BME280;2798;42.716;23.256;2022-08-11T07:58:09;94880.50;;;23.18;67.32
5550;BME280;2798;42.716;23.256;2022-08-11T08:00:55;94880.34;;;23.41;67.55
5550;BME280;2798;42.716;23.256;2022-08-11T08:03:41;94880.00;;;23.73;67.60
5550;BME280;2798;42.716;23.256;2022-08-11T08:06:27;94868.78;;;23.86;65.94
5550;BME280;2798;42.716;23.256;2022-08-11T08:09:13;94885.47;;;24.07;66.81
5550;BME280;2798;42.716;23.256;2022-08-11T08:11:59;94881.25;;;24.06;66.46
5550;BME280;2798;42.716;23.256;2022-08-11T08:14:45;94862.69;;;24.14;67.03
5550;BME280;2798;42.716;23.256;2022-08-11T08:17:29;94890.91;;;24.27;64.96
5550;BME280;2798;42.716;23.256;2022-08-11T08:20:15;94882.91;;;24.14;66.04
5550;BME280;2798;42.716;23.256;2022-08-11T08:22:42;94884.69;;;24.06;65.58
5550;BME280;2798;42.716;23.256;2022-08-11T08:25:08;94860.66;;;24.10;64.53
5550;BME280;2798;42.716;23.256;2022-08-11T08:27:34;94854.69;;;23.94;65.55
5550;BME280;2798;42.716;23.256;2022-08-11T08:30:02;94877.53;;;24.22;64.64
5550;BME280;2798;42.716;23.256;2022-08-11T08:32:47;94876.75;;;24.00;66.16
5550;BME280;2798;42.716;23.256;2022-08-11T08:35:13;94870.09;;;24.04;65.64
5550;BME280;2798;42.716;23.256;2022-08-11T08:37:39;94873.50;;;23.69;66.34
5550;BME280;2798;42.716;23.256;2022-08-11T08:40:06;94864.78;;;23.68;66.15
5550;BME280;2798;42.716;23.256;2022-08-11T08:42:37;94875.56;;;23.74;66.47
5550;BME280;2798;42.716;23.256;2022-08-11T08:45:06;94865.81;;;23.96;65.45
5550;BME280;2798;42.716;23.256;2022-08-11T08:47:41;94860.59;;;24.31;63.41
5550;BME280;2798;42.716;23.256;2022-08-11T08:50:11;94859.00;;;24.37;64.53
5550;BME280;2798;42.716;23.256;2022-08-11T08:52:39;94830.59;;;24.19;64.44
5550;BME280;2798;42.716;23.256;2022-08-11T08:55:09;94867.38;;;24.54;63.63
5550;BME280;2798;42.716;23.256;2022-08-11T08:57:38;94867.13;;;24.14;64.22
5550;BME280;2798;42.716;23.256;2022-08-11T09:00:06;94862.16;;;24.19;64.02
5550;BME280;2798;42.716;23.256;2022-08-11T09:02:32;94853.78;;;23.80;65.63
5550;BME280;2798;42.716;23.256;2022-08-11T09:05:00;94847.22;;;23.69;64.53
5550;BME280;2798;42.716;23.256;2022-08-11T09:07:26;94861.84;;;23.78;63.88
5550;BME280;2798;42.716;23.256;2022-08-11T09:09:53;94856.63;;;23.85;63.31
5550;BME280;2798;42.716;23.256;2022-08-11T09:12:25;94862.28;;;23.82;61.94
5550;BME280;2798;42.716;23.256;2022-08-11T09:14:52;94857.22;;;23.80;63.23
5550;BME280;2798;42.716;23.256;2022-08-11T09:17:39;94828.16;;;23.89;62.57
5550;BME280;2798;42.716;23.256;2022-08-11T09:20:29;94845.31;;;24.13;63.00
5550;BME280;2798;42.716;23.256;2022-08-11T09:23:04;94849.09;;;24.39;61.09
5550;BME280;2798;42.716;23.256;2022-08-11T09:25:58;94836.59;;;24.48;60.95
5550;BME280;2798;42.716;23.256;2022-08-11T09:28:44;94848.72;;;24.91;59.80
5550;BME280;2798;42.716;23.256;2022-08-11T09:31:11;94857.06;;;24.53;61.37
5550;BME280;2798;42.716;23.256;2022-08-11T09:33:38;94844.44;;;24.41;62.94
5550;BME280;2798;42.716;23.256;2022-08-11T09:36:06;94844.41;;;24.28;64.03
5550;BME280;2798;42.716;23.256;2022-08-11T09:38:51;94848.69;;;24.42;63.47
5550;BME280;2798;42.716;23.256;2022-08-11T09:41:37;94852.22;;;24.56;61.21
5550;BME280;2798;42.716;23.256;2022-08-11T09:44:04;94839.72;;;24.72;59.75
5550;BME280;2798;42.716;23.256;2022-08-11T09:46:50;94806.97;;;24.88;58.11
5550;BME280;2798;42.716;23.256;2022-08-11T09:49:18;94830.31;;;25.05;58.53
5550;BME280;2798;42.716;23.256;2022-08-11T09:51:46;94828.09;;;25.15;59.35
5550;BME280;2798;42.716;23.256;2022-08-11T09:54:14;94826.28;;;25.29;59.80
5550;BME280;2798;42.716;23.256;2022-08-11T09:56:42;94822.44;;;25.52;58.86
5550;BME280;2798;42.716;23.256;2022-08-11T09:59:26;94824.84;;;25.06;58.26
5550;BME280;2798;42.716;23.256;2022-08-11T10:01:56;94822.63;;;25.10;59.47
5550;BME280;2798;42.716;23.256;2022-08-11T10:07:03;94822.44;;;25.32;56.91
5550;BME280;2798;42.716;23.256;2022-08-11T10:09:43;94820.22;;;25.22;56.17
5550;BME280;2798;42.716;23.256;2022-08-11T10:12:28;94807.75;;;24.82;57.12
5550;BME280;2798;42.716;23.256;2022-08-11T10:15:02;94813.66;;;24.91;56.68
5550;BME280;2798;42.716;23.256;2022-08-11T10:20:47;94812.06;;;24.90;56.67
5550;BME280;2798;42.716;23.256;2022-08-11T10:23:14;94808.88;;;25.15;52.75
5550;BME280;2798;42.716;23.256;2022-08-11T10:25:59;94808.25;;;25.33;53.63
5550;BME280;2798;42.716;23.256;2022-08-11T10:28:43;94808.69;;;25.50;53.28
5550;BME280;2798;42.716;23.256;2022-08-11T10:31:09;94798.13;;;25.10;52.32
5550;BME280;2798;42.716;23.256;2022-08-11T10:33:54;94811.06;;;25.04;52.77
5550;BME280;2798;42.716;23.256;2022-08-11T10:36:34;94796.47;;;24.95;53.21
5550;BME280;2798;42.716;23.256;2022-08-11T10:39:07;94813.53;;;25.26;54.22
5550;BME280;2798;42.716;23.256;2022-08-11T10:41:34;94816.97;;;25.61;51.88
5550;BME280;2798;42.716;23.256;2022-08-11T10:44:19;94810.91;;;25.80;52.55
5550;BME280;2798;42.716;23.256;2022-08-11T10:46:46;94776.22;;;24.96;52.96
5550;BME280;2798;42.716;23.256;2022-08-11T10:49:31;94796.72;;;25.34;53.01
5550;BME280;2798;42.716;23.256;2022-08-11T10:51:58;94803.19;;;25.38;53.31
5550;BME280;2798;42.716;23.256;2022-08-11T10:54:42;94783.16;;;25.30;53.57
5550;BME280;2798;42.716;23.256;2022-08-11T10:57:27;94787.59;;;25.50;52.94
5550;BME280;2798;42.716;23.256;2022-08-11T11:00:12;94790.63;;;25.81;53.78
5550;BME280;2798;42.716;23.256;2022-08-11T11:02:44;94791.47;;;25.68;53.41
5550;BME280;2798;42.716;23.256;2022-08-11T11:05:25;94780.88;;;25.82;52.65
5550;BME280;2798;42.716;23.256;2022-08-11T11:08:00;94783.50;;;25.95;52.96
5550;BME280;2798;42.716;23.256;2022-08-11T11:10:52;94778.81;;;26.04;51.75
5550;BME280;2798;42.716;23.256;2022-08-11T11:13:18;94772.47;;;26.19;51.71
5550;BME280;2798;42.716;23.256;2022-08-11T11:16:04;94760.72;;;26.21;51.04
5550;BME280;2798;42.716;23.256;2022-08-11T11:18:48;94752.25;;;25.99;50.92
5550;BME280;2798;42.716;23.256;2022-08-11T11:21:18;94757.69;;;26.17;49.68
5550;BME280;2798;42.716;23.256;2022-08-11T11:23:55;94764.13;;;26.35;50.81
5550;BME280;2798;42.716;23.256;2022-08-11T11:35:14;94768.53;;;25.89;51.74
5550;BME280;2798;42.716;23.256;2022-08-11T11:37:46;94744.41;;;25.78;52.25
5550;BME280;2798;42.716;23.256;2022-08-11T11:40:18;94773.69;;;26.23;51.84
5550;BME280;2798;42.716;23.256;2022-08-11T11:42:52;94764.56;;;26.19;50.50
5550;BME280;2798;42.716;23.256;2022-08-11T11:45:20;94763.13;;;26.23;51.12
5550;BME280;2798;42.716;23.256;2022-08-11T11:47:47;94756.75;;;26.51;50.22
5550;BME280;2798;42.716;23.256;2022-08-11T11:50:25;94762.53;;;26.66;49.00
5550;BME280;2798;42.716;23.256;2022-08-11T11:52:52;94752.19;;;26.65;49.08
5550;BME280;2798;42.716;23.256;2022-08-11T11:55:21;94756.38;;;26.79;49.06
5550;BME280;2798;42.716;23.256;2022-08-11T11:57:48;94746.44;;;26.75;49.59
5550;BME280;2798;42.716;23.256;2022-08-11T12:00:33;94753.44;;;26.95;48.66
5550;BME280;2798;42.716;23.256;2022-08-11T12:03:18;94761.19;;;26.89;47.69
5550;BME280;2798;42.716;23.256;2022-08-11T12:05:45;94755.25;;;26.94;48.28
5550;BME280;2798;42.716;23.256;2022-08-11T12:08:12;94754.72;;;26.85;47.91
5550;BME280;2798;42.716;23.256;2022-08-11T12:10:54;94756.25;;;27.07;46.92
5550;BME280;2798;42.716;23.256;2022-08-11T12:13:48;94754.91;;;27.23;45.98
5550;BME280;2798;42.716;23.256;2022-08-11T12:16:15;94752.34;;;27.35;45.63
5550;BME280;2798;42.716;23.256;2022-08-11T12:18:45;94750.03;;;27.45;44.54
5550;BME280;2798;42.716;23.256;2022-08-11T12:21:13;94743.22;;;27.56;44.33
5550;BME280;2798;42.716;23.256;2022-08-11T12:23:41;94737.28;;;27.61;43.78
5550;BME280;2798;42.716;23.256;2022-08-11T12:26:27;94734.00;;;27.40;43.51
5550;BME280;2798;42.716;23.256;2022-08-11T12:29:12;94704.44;;;27.50;46.17
5550;BME280;2798;42.716;23.256;2022-08-11T12:31:39;94731.88;;;27.49;47.65
5550;BME280;2798;42.716;23.256;2022-08-11T12:34:08;94739.31;;;27.40;48.29
5550;BME280;2798;42.716;23.256;2022-08-11T12:36:49;94747.16;;;27.47;48.52
5550;BME280;2798;42.716;23.256;2022-08-11T12:39:21;94747.38;;;27.45;48.33
5550;BME280;2798;42.716;23.256;2022-08-11T12:42:12;94761.31;;;27.34;48.46
5550;BME280;2798;42.716;23.256;2022-08-11T12:44:59;94747.88;;;27.35;48.84
5550;BME280;2798;42.716;23.256;2022-08-11T12:47:49;94753.28;;;27.66;48.37
5550;BME280;2798;42.716;23.256;2022-08-11T12:50:34;94741.75;;;27.60;49.15
5550;BME280;2798;42.716;23.256;2022-08-11T12:53:23;94757.94;;;27.20;50.15
5550;BME280;2798;42.716;23.256;2022-08-11T12:55:52;94751.75;;;27.07;50.12
5550;BME280;2798;42.716;23.256;2022-08-11T12:58:40;94747.28;;;27.08;49.11
5550;BME280;2798;42.716;23.256;2022-08-11T13:01:06;94735.31;;;27.05;48.94
5550;BME280;2798;42.716;23.256;2022-08-11T13:03:50;94738.63;;;27.26;48.88
5550;BME280;2798;42.716;23.256;2022-08-11T13:06:35;94741.56;;;27.36;50.09
5550;BME280;2798;42.716;23.256;2022-08-11T13:09:02;94744.81;;;27.38;50.86
5550;BME280;2798;42.716;23.256;2022-08-11T13:11:29;94745.41;;;27.40;50.37
5550;BME280;2798;42.716;23.256;2022-08-11T13:14:14;94726.56;;;27.30;50.20
5550;BME280;2798;42.716;23.256;2022-08-11T13:16:43;94743.13;;;27.44;50.21
5550;BME280;2798;42.716;23.256;2022-08-11T13:19:27;94729.38;;;27.35;50.20
5550;BME280;2798;42.716;23.256;2022-08-11T13:21:55;94744.38;;;27.42;49.92
5550;BME280;2798;42.716;23.256;2022-08-11T13:24:22;94740.41;;;27.51;48.99
5550;BME280;2798;42.716;23.256;2022-08-11T13:26:49;94741.19;;;27.58;47.61
5550;BME280;2798;42.716;23.256;2022-08-11T13:29:22;94732.53;;;27.70;46.68
5550;BME280;2798;42.716;23.256;2022-08-11T13:31:49;94737.66;;;27.64;46.78
5550;BME280;2798;42.716;23.256;2022-08-11T13:34:16;94736.09;;;27.82;47.02
5550;BME280;2798;42.716;23.256;2022-08-11T13:36:42;94730.63;;;27.96;46.30
5550;BME280;2798;42.716;23.256;2022-08-11T13:39:09;94723.00;;;28.06;45.82
5550;BME280;2798;42.716;23.256;2022-08-11T13:41:35;94721.72;;;28.09;44.89
5550;BME280;2798;42.716;23.256;2022-08-11T13:44:07;94722.91;;;28.32;44.27
5550;BME280;2798;42.716;23.256;2022-08-11T13:46:33;94716.78;;;28.50;42.72
5550;BME280;2798;42.716;23.256;2022-08-11T13:48:59;94710.06;;;28.47;42.92
5550;BME280;2798;42.716;23.256;2022-08-11T13:51:26;94719.00;;;28.65;43.39
5550;BME280;2798;42.716;23.256;2022-08-11T13:54:10;94715.84;;;28.87;42.46
5550;BME280;2798;42.716;23.256;2022-08-11T13:56:43;94722.13;;;29.05;41.86
5550;BME280;2798;42.716;23.256;2022-08-11T13:59:09;94716.34;;;29.20;41.91
5550;BME280;2798;42.716;23.256;2022-08-11T14:01:38;94708.31;;;29.39;39.20
5550;BME280;2798;42.716;23.256;2022-08-11T14:04:10;94707.03;;;29.17;39.66
5550;BME280;2798;42.716;23.256;2022-08-11T14:06:40;94702.19;;;29.26;40.09
5550;BME280;2798;42.716;23.256;2022-08-11T14:09:10;94691.81;;;29.24;40.44
5550;BME280;2798;42.716;23.256;2022-08-11T14:11:38;94693.91;;;29.46;39.49
5550;BME280;2798;42.716;23.256;2022-08-11T14:14:25;94706.03;;;29.66;39.47
5550;BME280;2798;42.716;23.256;2022-08-11T14:16:55;94704.38;;;29.53;39.57
5550;BME280;2798;42.716;23.256;2022-08-11T14:19:25;94704.38;;;29.53;41.11
5550;BME280;2798;42.716;23.256;2022-08-11T14:21:52;94710.16;;;29.74;39.88
5550;BME280;2798;42.716;23.256;2022-08-11T14:24:37;94712.34;;;29.77;40.28
5550;BME280;2798;42.716;23.256;2022-08-11T14:27:04;94687.66;;;29.89;40.13
5550;BME280;2798;42.716;23.256;2022-08-11T14:29:31;94708.81;;;30.13;39.90
5550;BME280;2798;42.716;23.256;2022-08-11T14:32:00;94698.31;;;30.06;39.77
5550;BME280;2798;42.716;23.256;2022-08-11T14:34:28;94705.00;;;30.08;39.68
5550;BME280;2798;42.716;23.256;2022-08-11T14:37:21;94705.56;;;30.22;39.57
5550;BME280;2798;42.716;23.256;2022-08-11T14:39:50;94709.22;;;30.33;39.62
5550;BME280;2798;42.716;23.256;2022-08-11T14:42:18;94705.72;;;30.45;39.66
5550;BME280;2798;42.716;23.256;2022-08-11T14:45:08;94692.56;;;30.38;39.93
5550;BME280;2798;42.716;23.256;2022-08-11T14:47:58;94699.09;;;30.47;40.06
5550;BME280;2798;42.716;23.256;2022-08-11T14:50:29;94698.69;;;30.68;40.49
5550;BME280;2798;42.716;23.256;2022-08-11T14:52:58;94701.38;;;30.85;40.26
5550;BME280;2798;42.716;23.256;2022-08-11T14:55:26;94706.78;;;30.61;38.79
5550;BME280;2798;42.716;23.256;2022-08-11T14:58:15;94702.25;;;30.44;39.30
5550;BME280;2798;42.716;23.256;2022-08-11T15:00:41;94681.25;;;30.43;39.16
5550;BME280;2798;42.716;23.256;2022-08-11T15:03:09;94690.38;;;30.64;39.32
5550;BME280;2798;42.716;23.256;2022-08-11T15:05:56;94690.19;;;30.83;38.80
5550;BME280;2798;42.716;23.256;2022-08-11T15:08:24;94692.41;;;30.74;38.85
5550;BME280;2798;42.716;23.256;2022-08-11T15:11:11;94689.00;;;30.62;39.45
5550;BME280;2798;42.716;23.256;2022-08-11T15:14:06;94691.66;;;30.62;38.77
5550;BME280;2798;42.716;23.256;2022-08-11T15:16:34;94701.91;;;30.41;40.00
5550;BME280;2798;42.716;23.256;2022-08-11T15:19:19;94692.72;;;29.90;41.33
5550;BME280;2798;42.716;23.256;2022-08-11T15:21:46;94698.53;;;29.63;41.08
5550;BME280;2798;42.716;23.256;2022-08-11T15:24:31;94695.84;;;29.51;41.53
5550;BME280;2798;42.716;23.256;2022-08-11T15:27:00;94703.81;;;29.27;41.34
5550;BME280;2798;42.716;23.256;2022-08-11T15:29:47;94693.91;;;28.98;40.69
5550;BME280;2798;42.716;23.256;2022-08-11T15:32:42;94685.84;;;28.62;41.74
5550;BME280;2798;42.716;23.256;2022-08-11T15:35:28;94686.72;;;28.25;42.17
5550;BME280;2798;42.716;23.256;2022-08-11T15:38:14;94687.50;;;28.14;41.71
5550;BME280;2798;42.716;23.256;2022-08-11T15:40:41;94692.97;;;27.82;42.12
5550;BME280;2798;42.716;23.256;2022-08-11T15:43:42;94674.94;;;27.53;43.19
5550;BME280;2798;42.716;23.256;2022-08-11T15:46:31;94692.69;;;27.46;44.61
5550;BME280;2798;42.716;23.256;2022-08-11T15:49:17;94694.59;;;27.38;44.56
5550;BME280;2798;42.716;23.256;2022-08-11T15:51:57;94689.13;;;27.14;45.71
5550;BME280;2798;42.716;23.256;2022-08-11T15:54:27;94687.56;;;27.07;45.98
5550;BME280;2798;42.716;23.256;2022-08-11T15:56:57;94683.50;;;27.04;46.39
5550;BME280;2798;42.716;23.256;2022-08-11T15:59:24;94691.31;;;26.92;48.39
5550;BME280;2798;42.716;23.256;2022-08-11T16:02:14;94697.06;;;26.82;50.09
5550;BME280;2798;42.716;23.256;2022-08-11T16:05:02;94692.44;;;26.77;49.89
5550;BME280;2798;42.716;23.256;2022-08-11T16:07:32;94691.09;;;26.68;49.79
5550;BME280;2798;42.716;23.256;2022-08-11T16:10:08;94684.63;;;26.57;50.38
5550;BME280;2798;42.716;23.256;2022-08-11T16:12:41;94699.97;;;26.74;47.68
5550;BME280;2798;42.716;23.256;2022-08-11T16:15:28;94693.91;;;26.66;47.49
5550;BME280;2798;42.716;23.256;2022-08-11T16:21:38;94689.28;;;26.62;47.13
5550;BME280;2798;42.716;23.256;2022-08-11T16:24:10;94690.69;;;26.64;48.51
5550;BME280;2798;42.716;23.256;2022-08-11T16:26:40;94689.13;;;26.57;46.92
5550;BME280;2798;42.716;23.256;2022-08-11T16:29:07;94695.19;;;26.57;47.26
5550;BME280;2798;42.716;23.256;2022-08-11T16:31:34;94699.25;;;26.60;47.12
5550;BME280;2798;42.716;23.256;2022-08-11T16:34:01;94694.41;;;26.57;46.72
5550;BME280;2798;42.716;23.256;2022-08-11T16:36:27;94692.97;;;26.54;47.48
5550;BME280;2798;42.716;23.256;2022-08-11T16:39:13;94702.09;;;26.58;46.54
5550;BME280;2798;42.716;23.256;2022-08-11T16:41:43;94699.25;;;26.60;46.15
5550;BME280;2798;42.716;23.256;2022-08-11T16:44:28;94702.41;;;26.75;45.79
5550;BME280;2798;42.716;23.256;2022-08-11T16:47:16;94679.44;;;26.76;44.69
5550;BME280;2798;42.716;23.256;2022-08-11T16:49:53;94708.72;;;27.00;46.01
5550;BME280;2798;42.716;23.256;2022-08-11T16:52:22;94702.59;;;27.06;44.91
5550;BME280;2798;42.716;23.256;2022-08-11T16:54:47;94703.41;;;27.07;44.52
5550;BME280;2798;42.716;23.256;2022-08-11T16:57:21;94708.91;;;27.05;44.28
5550;BME280;2798;42.716;23.256;2022-08-11T17:00:07;94711.78;;;26.97;43.97
5550;BME280;2798;42.716;23.256;2022-08-11T17:02:44;94708.91;;;26.73;44.92
5550;BME280;2798;42.716;23.256;2022-08-11T17:05:31;94713.44;;;26.59;45.09
5550;BME280;2798;42.716;23.256;2022-08-11T17:08:17;94719.75;;;26.58;44.77
5550;BME280;2798;42.716;23.256;2022-08-11T17:11:06;94723.31;;;26.31;45.11
5550;BME280;2798;42.716;23.256;2022-08-11T17:14:06;94715.09;;;26.14;46.72
5550;BME280;2798;42.716;23.256;2022-08-11T17:16:36;94711.88;;;26.05;46.27
5550;BME280;2798;42.716;23.256;2022-08-11T17:19:15;94725.66;;;26.07;46.32
5550;BME280;2798;42.716;23.256;2022-08-11T17:21:47;94723.66;;;25.96;46.81
5550;BME280;2798;42.716;23.256;2022-08-11T17:24:33;94712.16;;;25.83;46.82
5550;BME280;2798;42.716;23.256;2022-08-11T17:26:59;94735.50;;;25.73;47.30
5550;BME280;2798;42.716;23.256;2022-08-11T17:29:36;94727.34;;;25.81;47.42
5550;BME280;2798;42.716;23.256;2022-08-11T17:32:05;94747.88;;;25.72;47.60
5550;BME280;2798;42.716;23.256;2022-08-11T17:34:54;94739.38;;;25.36;48.37
5550;BME280;2798;42.716;23.256;2022-08-11T17:37:40;94737.56;;;25.43;48.43
5550;BME280;2798;42.716;23.256;2022-08-11T17:40:08;94721.34;;;25.26;48.46
5550;BME280;2798;42.716;23.256;2022-08-11T17:42:35;94742.22;;;25.35;49.16
5550;BME280;2798;42.716;23.256;2022-08-11T17:45:21;94747.69;;;25.33;48.97
5550;BME280;2798;42.716;23.256;2022-08-11T17:48:29;94749.13;;;25.29;48.86